Авиационная погода в Новокузнецке

СКИДКИ НА СМАРТФОНЫ!

Регион: 
Погода METAR: 
UNWW 081200Z 13002MPS 4400 BR FU NSC M23/M25 Q1037 R19/420150 NOSIG RMK QFE750
Время наблюдения
2022-12-08T12:00:00Z
Температура C
-23.0
Точка росы
-25.0
Направление ветра
130
Скорость ветра (узлы)
4
Метео видимость
2.73
Облачность
CLR
Нижняя граница облачности (футы)
Явления погоды
BR FU
Условия полета
IFR
Аэропорт подробнее: 
CLR — нет облаков ниже 3000 м
BR – дымка (видимость от 1 до 9 км); FU – дым (видимость менее 10 км);

Скидки на навигаторы!